sensor_id;sensor_type;location;lat;lon;timestamp;pressure;altitude;pressure_sealevel;temperature;humidity
6038;BME280;3047;42.600;23.470;2022-10-12T00:01:15;93647.78;;;14.27;100.00
6038;BME280;3047;42.600;23.470;2022-10-12T00:03:42;93652.72;;;14.31;100.00
6038;BME280;3047;42.600;23.470;2022-10-12T00:06:11;93640.03;;;14.30;100.00
6038;BME280;3047;42.600;23.470;2022-10-12T00:08:40;93627.72;;;14.19;100.00
6038;BME280;3047;42.600;23.470;2022-10-12T00:11:10;93643.69;;;14.23;100.00
6038;BME280;3047;42.600;23.470;2022-10-12T00:13:37;93644.34;;;14.28;100.00
6038;BME280;3047;42.600;23.470;2022-10-12T00:16:06;93640.75;;;14.35;100.00
6038;BME280;3047;42.600;23.470;2022-10-12T00:18:35;93645.00;;;14.34;100.00
6038;BME280;3047;42.600;23.470;2022-10-12T00:21:02;93597.53;;;14.10;100.00
6038;BME280;3047;42.600;23.470;2022-10-12T00:23:30;93610.59;;;14.24;100.00
6038;BME280;3047;42.600;23.470;2022-10-12T00:26:01;93627.69;;;14.44;100.00
6038;BME280;3047;42.600;23.470;2022-10-12T00:28:29;93600.34;;;14.27;100.00
6038;BME280;3047;42.600;23.470;2022-10-12T00:30:56;93595.25;;;14.27;100.00
6038;BME280;3047;42.600;23.470;2022-10-12T00:33:22;93629.34;;;14.45;100.00
6038;BME280;3047;42.600;23.470;2022-10-12T00:35:51;93630.16;;;14.47;100.00
6038;BME280;3047;42.600;23.470;2022-10-12T00:38:19;93632.63;;;14.50;100.00
6038;BME280;3047;42.600;23.470;2022-10-12T00:40:46;93635.94;;;14.52;100.00
6038;BME280;3047;42.600;23.470;2022-10-12T00:43:31;93638.41;;;14.54;100.00
6038;BME280;3047;42.600;23.470;2022-10-12T00:46:02;93615.66;;;14.51;100.00
6038;BME280;3047;42.600;23.470;2022-10-12T00:48:31;93624.00;;;14.54;100.00
6038;BME280;3047;42.600;23.470;2022-10-12T00:51:00;93613.16;;;14.49;100.00
6038;BME280;3047;42.600;23.470;2022-10-12T00:53:32;93617.25;;;14.53;100.00
6038;BME280;3047;42.600;23.470;2022-10-12T00:56:02;93619.78;;;14.53;100.00
6038;BME280;3047;42.600;23.470;2022-10-12T00:58:30;93624.66;;;14.59;100.00
6038;BME280;3047;42.600;23.470;2022-10-12T01:00:59;93622.06;;;14.61;100.00
6038;BME280;3047;42.600;23.470;2022-10-12T01:03:26;93617.06;;;14.58;100.00
6038;BME280;3047;42.600;23.470;2022-10-12T01:05:54;93614.53;;;14.58;100.00
6038;BME280;3047;42.600;23.470;2022-10-12T01:08:22;93603.78;;;14.51;100.00
6038;BME280;3047;42.600;23.470;2022-10-12T01:10:49;93606.34;;;14.50;100.00
6038;BME280;3047;42.600;23.470;2022-10-12T01:13:16;93606.22;;;14.54;100.00
6038;BME280;3047;42.600;23.470;2022-10-12T01:15:48;93610.31;;;14.58;100.00
6038;BME280;3047;42.600;23.470;2022-10-12T01:18:24;93606.03;;;14.59;100.00
6038;BME280;3047;42.600;23.470;2022-10-12T01:21:10;93605.41;;;14.52;100.00
6038;BME280;3047;42.600;23.470;2022-10-12T01:23:53;93614.75;;;14.52;100.00
6038;BME280;3047;42.600;23.470;2022-10-12T01:26:41;93610.50;;;14.52;100.00
6038;BME280;3047;42.600;23.470;2022-10-12T01:29:29;93600.94;;;14.34;100.00
6038;BME280;3047;42.600;23.470;2022-10-12T01:32:07;93610.81;;;14.43;100.00
6038;BME280;3047;42.600;23.470;2022-10-12T01:34:43;93624.41;;;14.42;100.00
6038;BME280;3047;42.600;23.470;2022-10-12T01:37:15;93628.53;;;14.45;100.00
6038;BME280;3047;42.600;23.470;2022-10-12T01:39:48;93616.81;;;14.41;100.00
6038;BME280;3047;42.600;23.470;2022-10-12T01:42:19;93621.00;;;14.42;100.00
6038;BME280;3047;42.600;23.470;2022-10-12T01:44:48;93629.41;;;14.44;100.00
6038;BME280;3047;42.600;23.470;2022-10-12T01:47:16;93622.72;;;14.41;100.00
6038;BME280;3047;42.600;23.470;2022-10-12T01:49:43;93621.91;;;14.41;100.00
6038;BME280;3047;42.600;23.470;2022-10-12T01:52:20;93621.97;;;14.39;100.00
6038;BME280;3047;42.600;23.470;2022-10-12T01:55:05;93563.06;;;14.03;100.00
6038;BME280;3047;42.600;23.470;2022-10-12T01:57:44;93619.34;;;14.41;100.00
6038;BME280;3047;42.600;23.470;2022-10-12T02:00:16;93622.78;;;14.40;100.00
6038;BME280;3047;42.600;23.470;2022-10-12T02:02:51;93613.50;;;14.39;100.00
6038;BME280;3047;42.600;23.470;2022-10-12T02:05:25;93619.31;;;14.42;100.00
6038;BME280;3047;42.600;23.470;2022-10-12T02:07:59;93614.09;;;14.45;100.00
6038;BME280;3047;42.600;23.470;2022-10-12T02:10:32;93621.69;;;14.47;100.00
6038;BME280;3047;42.600;23.470;2022-10-12T02:13:04;93621.78;;;14.44;100.00
6038;BME280;3047;42.600;23.470;2022-10-12T02:15:32;93589.59;;;14.19;100.00
6038;BME280;3047;42.600;23.470;2022-10-12T02:18:03;93629.59;;;14.39;100.00
6038;BME280;3047;42.600;23.470;2022-10-12T02:20:31;93609.53;;;14.30;100.00
6038;BME280;3047;42.600;23.470;2022-10-12T02:23:00;93632.84;;;14.43;100.00
6038;BME280;3047;42.600;23.470;2022-10-12T02:25:28;93636.25;;;14.42;100.00
6038;BME280;3047;42.600;23.470;2022-10-12T02:28:01;93631.16;;;14.42;100.00
6038;BME280;3047;42.600;23.470;2022-10-12T02:30:30;93569.91;;;14.01;100.00
6038;BME280;3047;42.600;23.470;2022-10-12T02:33:04;93638.75;;;14.43;100.00
6038;BME280;3047;42.600;23.470;2022-10-12T02:35:37;93600.66;;;14.18;100.00
6038;BME280;3047;42.600;23.470;2022-10-12T02:38:10;93639.91;;;14.34;100.00
6038;BME280;3047;42.600;23.470;2022-10-12T02:40:40;93638.94;;;14.39;100.00
6038;BME280;3047;42.600;23.470;2022-10-12T02:43:12;93637.22;;;14.39;100.00
6038;BME280;3047;42.600;23.470;2022-10-12T02:45:42;93645.00;;;14.34;100.00
6038;BME280;3047;42.600;23.470;2022-10-12T02:48:15;93626.47;;;14.31;100.00
6038;BME280;3047;42.600;23.470;2022-10-12T02:50:43;93649.03;;;14.40;100.00
6038;BME280;3047;42.600;23.470;2022-10-12T02:53:12;93644.84;;;14.39;100.00
6038;BME280;3047;42.600;23.470;2022-10-12T02:55:46;93594.28;;;14.06;100.00
6038;BME280;3047;42.600;23.470;2022-10-12T02:58:13;93639.84;;;14.36;100.00
6038;BME280;3047;42.600;23.470;2022-10-12T03:00:40;93635.66;;;14.35;100.00
6038;BME280;3047;42.600;23.470;2022-10-12T03:03:07;93637.38;;;14.34;100.00
6038;BME280;3047;42.600;23.470;2022-10-12T03:05:35;93636.41;;;14.37;100.00
6038;BME280;3047;42.600;23.470;2022-10-12T03:08:02;93637.25;;;14.38;100.00
6038;BME280;3047;42.600;23.470;2022-10-12T03:10:29;93636.50;;;14.34;100.00
6038;BME280;3047;42.600;23.470;2022-10-12T03:12:55;93639.03;;;14.35;100.00
6038;BME280;3047;42.600;23.470;2022-10-12T03:15:22;93621.34;;;14.32;100.00
6038;BME280;3047;42.600;23.470;2022-10-12T03:17:49;93630.50;;;14.37;100.00
6038;BME280;3047;42.600;23.470;2022-10-12T03:20:16;93626.34;;;14.34;100.00
6038;BME280;3047;42.600;23.470;2022-10-12T03:22:44;93627.34;;;14.30;100.00
6038;BME280;3047;42.600;23.470;2022-10-12T03:25:11;93628.44;;;14.23;100.00
6038;BME280;3047;42.600;23.470;2022-10-12T03:27:37;93623.25;;;14.26;100.00
6038;BME280;3047;42.600;23.470;2022-10-12T03:30:05;93628.38;;;14.24;100.00
6038;BME280;3047;42.600;23.470;2022-10-12T03:32:32;93628.38;;;14.24;100.00
6038;BME280;3047;42.600;23.470;2022-10-12T03:34:59;93625.00;;;14.24;100.00
6038;BME280;3047;42.600;23.470;2022-10-12T03:37:25;93635.13;;;14.25;100.00
6038;BME280;3047;42.600;23.470;2022-10-12T03:39:54;93636.84;;;14.25;100.00
6038;BME280;3047;42.600;23.470;2022-10-12T03:42:21;93634.34;;;14.23;100.00
6038;BME280;3047;42.600;23.470;2022-10-12T03:44:47;93631.09;;;14.20;100.00
6038;BME280;3047;42.600;23.470;2022-10-12T03:47:14;93633.63;;;14.20;100.00
6038;BME280;3047;42.600;23.470;2022-10-12T03:49:41;93631.84;;;14.22;100.00
6038;BME280;3047;42.600;23.470;2022-10-12T03:52:08;93634.25;;;14.26;100.00
6038;BME280;3047;42.600;23.470;2022-10-12T03:54:34;93635.09;;;14.27;100.00
6038;BME280;3047;42.600;23.470;2022-10-12T03:57:02;93644.19;;;14.32;100.00
6038;BME280;3047;42.600;23.470;2022-10-12T03:59:29;93640.78;;;14.33;100.00
6038;BME280;3047;42.600;23.470;2022-10-12T04:01:56;93635.69;;;14.33;100.00
6038;BME280;3047;42.600;23.470;2022-10-12T04:04:22;93638.38;;;14.29;100.00
6038;BME280;3047;42.600;23.470;2022-10-12T04:06:49;93643.53;;;14.27;100.00
6038;BME280;3047;42.600;23.470;2022-10-12T04:09:16;93639.13;;;14.32;100.00
6038;BME280;3047;42.600;23.470;2022-10-12T04:11:42;93643.38;;;14.32;100.00
6038;BME280;3047;42.600;23.470;2022-10-12T04:14:11;93650.63;;;14.18;100.00
6038;BME280;3047;42.600;23.470;2022-10-12T04:16:37;93649.75;;;14.19;100.00
6038;BME280;3047;42.600;23.470;2022-10-12T04:19:04;93643.72;;;14.21;100.00
6038;BME280;3047;42.600;23.470;2022-10-12T04:21:31;93646.16;;;14.24;100.00
6038;BME280;3047;42.600;23.470;2022-10-12T04:23:57;93644.47;;;14.25;100.00
6038;BME280;3047;42.600;23.470;2022-10-12T04:26:24;93647.09;;;14.22;100.00
6038;BME280;3047;42.600;23.470;2022-10-12T04:28:51;93646.25;;;14.21;100.00
6038;BME280;3047;42.600;23.470;2022-10-12T04:31:19;93643.69;;;14.23;100.00
6038;BME280;3047;42.600;23.470;2022-10-12T04:33:46;93648.81;;;14.21;100.00
6038;BME280;3047;42.600;23.470;2022-10-12T04:36:12;93650.53;;;14.21;100.00
6038;BME280;3047;42.600;23.470;2022-10-12T04:38:39;93653.16;;;14.18;100.00
6038;BME280;3047;42.600;23.470;2022-10-12T04:41:06;93655.75;;;14.16;100.00
6038;BME280;3047;42.600;23.470;2022-10-12T04:43:33;93653.22;;;14.16;100.00
6038;BME280;3047;42.600;23.470;2022-10-12T04:45:59;93650.00;;;14.11;100.00
6038;BME280;3047;42.600;23.470;2022-10-12T04:48:27;93655.84;;;14.13;100.00
6038;BME280;3047;42.600;23.470;2022-10-12T04:50:54;93654.94;;;14.16;100.00
6038;BME280;3047;42.600;23.470;2022-10-12T04:53:21;93649.94;;;14.13;100.00
6038;BME280;3047;42.600;23.470;2022-10-12T04:55:47;93655.91;;;14.12;100.00
6038;BME280;3047;42.600;23.470;2022-10-12T04:58:14;93632.00;;;13.92;100.00
6038;BME280;3047;42.600;23.470;2022-10-12T05:00:41;93657.63;;;14.11;100.00
6038;BME280;3047;42.600;23.470;2022-10-12T05:03:08;93631.75;;;14.00;100.00
6038;BME280;3047;42.600;23.470;2022-10-12T05:05:36;93655.56;;;14.22;100.00
6038;BME280;3047;42.600;23.470;2022-10-12T05:08:03;93663.91;;;14.26;100.00
6038;BME280;3047;42.600;23.470;2022-10-12T05:10:30;93663.13;;;14.24;100.00
6038;BME280;3047;42.600;23.470;2022-10-12T05:12:57;93662.31;;;14.23;100.00
6038;BME280;3047;42.600;23.470;2022-10-12T05:15:24;93668.06;;;14.28;100.00
6038;BME280;3047;42.600;23.470;2022-10-12T05:17:50;93669.78;;;14.28;100.00
6038;BME280;3047;42.600;23.470;2022-10-12T05:20:17;93655.00;;;14.14;100.00
6038;BME280;3047;42.600;23.470;2022-10-12T05:22:45;93673.06;;;14.30;100.00
6038;BME280;3047;42.600;23.470;2022-10-12T05:25:12;93677.25;;;14.32;100.00
6038;BME280;3047;42.600;23.470;2022-10-12T05:27:39;93680.56;;;14.34;100.00
6038;BME280;3047;42.600;23.470;2022-10-12T05:30:07;93673.03;;;14.31;100.00
6038;BME280;3047;42.600;23.470;2022-10-12T05:32:34;93678.84;;;14.35;100.00
6038;BME280;3047;42.600;23.470;2022-10-12T05:35:00;93698.09;;;14.42;100.00
6038;BME280;3047;42.600;23.470;2022-10-12T05:37:27;93697.38;;;14.39;100.00
6038;BME280;3047;42.600;23.470;2022-10-12T05:39:55;93703.44;;;14.34;100.00
6038;BME280;3047;42.600;23.470;2022-10-12T05:42:22;93667.88;;;14.08;100.00
6038;BME280;3047;42.600;23.470;2022-10-12T05:44:49;93707.00;;;14.29;100.00
6038;BME280;3047;42.600;23.470;2022-10-12T05:47:15;93687.06;;;14.17;100.00
6038;BME280;3047;42.600;23.470;2022-10-12T05:49:42;93703.44;;;14.34;100.00
6038;BME280;3047;42.600;23.470;2022-10-12T05:52:09;93687.66;;;14.25;100.00
6038;BME280;3047;42.600;23.470;2022-10-12T05:54:36;93707.47;;;14.40;100.00
6038;BME280;3047;42.600;23.470;2022-10-12T05:57:04;93705.84;;;14.39;100.00
6038;BME280;3047;42.600;23.470;2022-10-12T05:59:31;93713.38;;;14.42;100.00
6038;BME280;3047;42.600;23.470;2022-10-12T06:01:57;93711.66;;;14.43;100.00
6038;BME280;3047;42.600;23.470;2022-10-12T06:04:24;93718.53;;;14.39;100.00
6038;BME280;3047;42.600;23.470;2022-10-12T06:06:51;93717.72;;;14.39;100.00
6038;BME280;3047;42.600;23.470;2022-10-12T06:09:18;93703.44;;;14.34;100.00
6038;BME280;3047;42.600;23.470;2022-10-12T06:11:44;93719.00;;;14.52;100.00
6038;BME280;3047;42.600;23.470;2022-10-12T06:14:13;93724.84;;;14.54;100.00
6038;BME280;3047;42.600;23.470;2022-10-12T06:16:40;93728.19;;;14.56;100.00
6038;BME280;3047;42.600;23.470;2022-10-12T06:19:09;93724.19;;;14.47;100.00
6038;BME280;3047;42.600;23.470;2022-10-12T06:21:36;93726.56;;;14.53;100.00
6038;BME280;3047;42.600;23.470;2022-10-12T06:24:03;93728.09;;;14.57;100.00
6038;BME280;3047;42.600;23.470;2022-10-12T06:26:30;93726.47;;;14.56;100.00
6038;BME280;3047;42.600;23.470;2022-10-12T06:28:56;93733.09;;;14.61;100.00
6038;BME280;3047;42.600;23.470;2022-10-12T06:31:26;93737.25;;;14.63;100.00
6038;BME280;3047;42.600;23.470;2022-10-12T06:33:53;93728.84;;;14.61;100.00
6038;BME280;3047;42.600;23.470;2022-10-12T06:36:20;93742.09;;;14.71;100.00
6038;BME280;3047;42.600;23.470;2022-10-12T06:38:47;93739.41;;;14.74;100.00
6038;BME280;3047;42.600;23.470;2022-10-12T06:41:14;93718.50;;;14.66;100.00
6038;BME280;3047;42.600;23.470;2022-10-12T06:43:41;93736.78;;;14.77;100.00
6038;BME280;3047;42.600;23.470;2022-10-12T06:46:08;93744.41;;;14.77;100.00
6038;BME280;3047;42.600;23.470;2022-10-12T06:48:36;93740.81;;;14.82;100.00
6038;BME280;3047;42.600;23.470;2022-10-12T06:51:03;93734.25;;;14.77;100.00
6038;BME280;3047;42.600;23.470;2022-10-12T06:53:29;93746.69;;;14.84;100.00
6038;BME280;3047;42.600;23.470;2022-10-12T06:55:57;93751.69;;;14.88;100.00
6038;BME280;3047;42.600;23.470;2022-10-12T06:58:24;93752.44;;;14.90;100.00
6038;BME280;3047;42.600;23.470;2022-10-12T07:00:50;93718.25;;;14.73;100.00
6038;BME280;3047;42.600;23.470;2022-10-12T07:03:17;93751.47;;;14.94;100.00
6038;BME280;3047;42.600;23.470;2022-10-12T07:05:46;93754.06;;;14.92;100.00
6038;BME280;3047;42.600;23.470;2022-10-12T07:08:12;93755.78;;;14.92;100.00
6038;BME280;3047;42.600;23.470;2022-10-12T07:10:39;93757.38;;;14.94;100.00
6038;BME280;3047;42.600;23.470;2022-10-12T07:13:06;93759.88;;;14.96;100.00
6038;BME280;3047;42.600;23.470;2022-10-12T07:15:32;93750.69;;;14.92;100.00
6038;BME280;3047;42.600;23.470;2022-10-12T07:17:59;93758.94;;;14.98;100.00
6038;BME280;3047;42.600;23.470;2022-10-12T07:20:26;93757.22;;;14.99;100.00
6038;BME280;3047;42.600;23.470;2022-10-12T07:22:54;93761.38;;;15.01;100.00
6038;BME280;3047;42.600;23.470;2022-10-12T07:25:21;93761.28;;;15.04;100.00
6038;BME280;3047;42.600;23.470;2022-10-12T07:27:47;93762.16;;;15.03;100.00
6038;BME280;3047;42.600;23.470;2022-10-12T07:30:14;93764.81;;;15.00;100.00
6038;BME280;3047;42.600;23.470;2022-10-12T07:32:41;93765.00;;;14.94;100.00
6038;BME280;3047;42.600;23.470;2022-10-12T07:35:10;93768.19;;;15.01;100.00
6038;BME280;3047;42.600;23.470;2022-10-12T07:37:37;93769.94;;;14.99;100.00
6038;BME280;3047;42.600;23.470;2022-10-12T07:40:06;93759.19;;;14.91;100.00
6038;BME280;3047;42.600;23.470;2022-10-12T07:42:33;93778.44;;;14.99;100.00
6038;BME280;3047;42.600;23.470;2022-10-12T07:45:00;93775.81;;;15.01;100.00
6038;BME280;3047;42.600;23.470;2022-10-12T07:47:26;93770.88;;;14.96;100.00
6038;BME280;3047;42.600;23.470;2022-10-12T07:49:53;93752.56;;;14.87;100.00
6038;BME280;3047;42.600;23.470;2022-10-12T07:52:20;93774.31;;;14.95;100.00
6038;BME280;3047;42.600;23.470;2022-10-12T07:54:46;93770.06;;;14.96;100.00
6038;BME280;3047;42.600;23.470;2022-10-12T07:57:15;93769.94;;;14.99;100.00
6038;BME280;3047;42.600;23.470;2022-10-12T07:59:41;93755.78;;;14.92;100.00
6038;BME280;3047;42.600;23.470;2022-10-12T08:02:09;93772.28;;;15.05;100.00
6038;BME280;3047;42.600;23.470;2022-10-12T08:04:36;93768.03;;;15.05;100.00
6038;BME280;3047;42.600;23.470;2022-10-12T08:07:02;93736.63;;;14.81;100.00
6038;BME280;3047;42.600;23.470;2022-10-12T08:09:29;93773.91;;;15.07;100.00
6038;BME280;3047;42.600;23.470;2022-10-12T08:11:56;93768.81;;;15.07;100.00
6038;BME280;3047;42.600;23.470;2022-10-12T08:14:24;93777.28;;;15.08;100.00
6038;BME280;3047;42.600;23.470;2022-10-12T08:16:51;93771.34;;;15.07;100.00
6038;BME280;3047;42.600;23.470;2022-10-12T08:19:17;93779.75;;;15.09;100.00
6038;BME280;3047;42.600;23.470;2022-10-12T08:21:44;93774.66;;;15.09;100.00
6038;BME280;3047;42.600;23.470;2022-10-12T08:24:12;93776.38;;;15.09;100.00
6038;BME280;3047;42.600;23.470;2022-10-12T08:26:38;93767.38;;;14.99;100.00
6038;BME280;3047;42.600;23.470;2022-10-12T08:29:06;93780.56;;;15.10;100.00
6038;BME280;3047;42.600;23.470;2022-10-12T08:31:35;93751.25;;;15.00;100.00
6038;BME280;3047;42.600;23.470;2022-10-12T08:34:02;93780.38;;;15.16;100.00
6038;BME280;3047;42.600;23.470;2022-10-12T08:36:29;93777.94;;;15.13;100.00
6038;BME280;3047;42.600;23.470;2022-10-12T08:38:56;93777.00;;;15.16;100.00
6038;BME280;3047;42.600;23.470;2022-10-12T08:41:31;93781.97;;;15.19;100.00
6038;BME280;3047;42.600;23.470;2022-10-12T08:44:15;93757.00;;;15.05;100.00
6038;BME280;3047;42.600;23.470;2022-10-12T08:46:46;93774.22;;;15.22;100.00
6038;BME280;3047;42.600;23.470;2022-10-12T08:49:15;93778.50;;;15.21;100.00
6038;BME280;3047;42.600;23.470;2022-10-12T08:51:46;93778.41;;;15.24;100.00
6038;BME280;3047;42.600;23.470;2022-10-12T08:54:16;93767.56;;;15.19;100.00
6038;BME280;3047;42.600;23.470;2022-10-12T08:56:43;93707.66;;;14.86;100.00
6038;BME280;3047;42.600;23.470;2022-10-12T08:59:11;93751.50;;;15.17;100.00
6038;BME280;3047;42.600;23.470;2022-10-12T09:01:49;93775.84;;;15.24;100.00
6038;BME280;3047;42.600;23.470;2022-10-12T09:04:32;93786.84;;;15.25;100.00
6038;BME280;3047;42.600;23.470;2022-10-12T09:07:08;93778.50;;;15.21;100.00
6038;BME280;3047;42.600;23.470;2022-10-12T09:09:48;93781.09;;;15.20;100.00
6038;BME280;3047;42.600;23.470;2022-10-12T09:12:31;93783.81;;;15.15;100.00
6038;BME280;3047;42.600;23.470;2022-10-12T09:15:03;93769.81;;;15.03;100.00
6038;BME280;3047;42.600;23.470;2022-10-12T09:17:37;93785.56;;;15.13;100.00
6038;BME280;3047;42.600;23.470;2022-10-12T09:20:17;93779.66;;;15.13;100.00
6038;BME280;3047;42.600;23.470;2022-10-12T09:22:47;93759.09;;;14.94;100.00
6038;BME280;3047;42.600;23.470;2022-10-12T09:25:15;93776.38;;;15.09;100.00
6038;BME280;3047;42.600;23.470;2022-10-12T09:27:44;93774.06;;;15.03;100.00
6038;BME280;3047;42.600;23.470;2022-10-12T09:30:13;93764.91;;;14.97;100.00
6038;BME280;3047;42.600;23.470;2022-10-12T09:35:28;93778.09;;;15.08;100.00
6038;BME280;3047;42.600;23.470;2022-10-12T09:37:54;93774.47;;;15.16;100.00
6038;BME280;3047;42.600;23.470;2022-10-12T09:40:24;93772.69;;;15.18;100.00
6038;BME280;3047;42.600;23.470;2022-10-12T09:42:52;93775.19;;;15.19;100.00
6038;BME280;3047;42.600;23.470;2022-10-12T09:45:21;93776.75;;;15.23;100.00
6038;BME280;3047;42.600;23.470;2022-10-12T09:48:09;93770.75;;;15.24;100.00
6038;BME280;3047;42.600;23.470;2022-10-12T09:50:38;93770.59;;;15.29;100.00
6038;BME280;3047;42.600;23.470;2022-10-12T09:53:12;93767.13;;;15.31;100.00
6038;BME280;3047;42.600;23.470;2022-10-12T09:55:50;93762.63;;;15.38;100.00
6038;BME280;3047;42.600;23.470;2022-10-12T09:58:19;93758.53;;;15.34;100.00
6038;BME280;3047;42.600;23.470;2022-10-12T10:01:21;93749.13;;;15.36;100.00
6038;BME280;3047;42.600;23.470;2022-10-12T10:03:59;93763.91;;;15.50;100.00
6038;BME280;3047;42.600;23.470;2022-10-12T10:06:32;93730.50;;;15.36;100.00
6038;BME280;3047;42.600;23.470;2022-10-12T10:08:58;93754.50;;;15.52;100.00
6038;BME280;3047;42.600;23.470;2022-10-12T10:11:27;93752.59;;;15.57;100.00
6038;BME280;3047;42.600;23.470;2022-10-12T10:13:55;93756.81;;;15.58;100.00
6038;BME280;3047;42.600;23.470;2022-10-12T10:16:26;93700.31;;;15.25;100.00
6038;BME280;3047;42.600;23.470;2022-10-12T10:18:55;93753.53;;;15.54;100.00
6038;BME280;3047;42.600;23.470;2022-10-12T10:21:25;93751.00;;;15.54;100.00
6038;BME280;3047;42.600;23.470;2022-10-12T10:23:55;93751.78;;;15.56;100.00
6038;BME280;3047;42.600;23.470;2022-10-12T10:26:24;93752.50;;;15.60;100.00
6038;BME280;3047;42.600;23.470;2022-10-12T10:28:56;93743.06;;;15.62;100.00
6038;BME280;3047;42.600;23.470;2022-10-12T10:31:26;93746.38;;;15.66;100.00
6038;BME280;3047;42.600;23.470;2022-10-12T10:34:11;93701.25;;;15.46;100.00
6038;BME280;3047;42.600;23.470;2022-10-12T10:36:42;93741.16;;;15.69;100.00
6038;BME280;3047;42.600;23.470;2022-10-12T10:39:19;93738.19;;;15.79;100.00
6038;BME280;3047;42.600;23.470;2022-10-12T10:41:48;93705.88;;;15.58;100.00
6038;BME280;3047;42.600;23.470;2022-10-12T10:44:27;93736.97;;;15.68;100.00
6038;BME280;3047;42.600;23.470;2022-10-12T10:46:57;93734.34;;;15.69;100.00
6038;BME280;3047;42.600;23.470;2022-10-12T10:49:34;93725.72;;;15.73;100.00
6038;BME280;3047;42.600;23.470;2022-10-12T10:52:03;93728.91;;;15.78;100.00
6038;BME280;3047;42.600;23.470;2022-10-12T10:54:33;93711.25;;;15.74;100.00
6038;BME280;3047;42.600;23.470;2022-10-12T10:57:03;93699.63;;;15.67;100.00
6038;BME280;3047;42.600;23.470;2022-10-12T10:59:41;93692.81;;;15.67;100.00
6038;BME280;3047;42.600;23.470;2022-10-12T11:02:25;93718.31;;;15.89;100.00
6038;BME280;3047;42.600;23.470;2022-10-12T11:04:59;93714.97;;;15.87;100.00
6038;BME280;3047;42.600;23.470;2022-10-12T11:07:31;93713.31;;;15.86;100.00
6038;BME280;3047;42.600;23.470;2022-10-12T11:10:03;93712.56;;;15.84;100.00
6038;BME280;3047;42.600;23.470;2022-10-12T11:12:39;93706.50;;;15.87;100.00
6038;BME280;3047;42.600;23.470;2022-10-12T11:15:14;93707.34;;;15.87;100.00
6038;BME280;3047;42.600;23.470;2022-10-12T11:17:46;93710.66;;;15.89;100.00
6038;BME280;3047;42.600;23.470;2022-10-12T11:20:27;93716.50;;;15.91;100.00
6038;BME280;3047;42.600;23.470;2022-10-12T11:23:00;93706.13;;;15.96;100.00
6038;BME280;3047;42.600;23.470;2022-10-12T11:25:30;93703.78;;;15.91;100.00
6038;BME280;3047;42.600;23.470;2022-10-12T11:27:59;93673.88;;;15.74;100.00
6038;BME280;3047;42.600;23.470;2022-10-12T11:30:29;93704.44;;;15.96;100.00
6038;BME280;3047;42.600;23.470;2022-10-12T11:33:06;93695.50;;;15.86;100.00
6038;BME280;3047;42.600;23.470;2022-10-12T11:35:37;93692.84;;;15.89;100.00
6038;BME280;3047;42.600;23.470;2022-10-12T11:38:08;93703.28;;;16.03;100.00
6038;BME280;3047;42.600;23.470;2022-10-12T11:40:44;93697.25;;;16.06;100.00
6038;BME280;3047;42.600;23.470;2022-10-12T11:43:17;93686.81;;;16.12;100.00
6038;BME280;3047;42.600;23.470;2022-10-12T11:45:47;93694.41;;;16.14;100.00
6038;BME280;3047;42.600;23.470;2022-10-12T11:48:21;93682.88;;;16.05;100.00
6038;BME280;3047;42.600;23.470;2022-10-12T11:50:49;93681.19;;;16.04;100.00
6038;BME280;3047;42.600;23.470;2022-10-12T11:53:22;93705.31;;;16.17;100.00
6038;BME280;3047;42.600;23.470;2022-10-12T11:55:59;93686.16;;;16.07;100.00
6038;BME280;3047;42.600;23.470;2022-10-12T11:58:32;93701.88;;;16.18;100.00
6038;BME280;3047;42.600;23.470;2022-10-12T12:01:22;93680.97;;;16.10;100.00
6038;BME280;3047;42.600;23.470;2022-10-12T12:04:09;93688.22;;;16.19;100.00
6038;BME280;3047;42.600;23.470;2022-10-12T12:06:48;93696.66;;;16.21;100.00
6038;BME280;3047;42.600;23.470;2022-10-12T12:09:28;93704.03;;;16.27;100.00
6038;BME280;3047;42.600;23.470;2022-10-12T12:15:06;93708.38;;;16.25;100.00
6038;BME280;3047;42.600;23.470;2022-10-12T12:18:03;93689.88;;;16.20;100.00
6038;BME280;3047;42.600;23.470;2022-10-12T12:21:01;93705.69;;;16.28;100.00
6038;BME280;3047;42.600;23.470;2022-10-12T12:23:33;93704.00;;;16.29;100.00
6038;BME280;3047;42.600;23.470;2022-10-12T12:26:12;93696.28;;;16.30;100.00
6038;BME280;3047;42.600;23.470;2022-10-12T12:28:41;93699.66;;;16.31;100.00
6038;BME280;3047;42.600;23.470;2022-10-12T12:31:13;93695.88;;;16.40;100.00
6038;BME280;3047;42.600;23.470;2022-10-12T12:33:42;93694.81;;;16.45;100.00
6038;BME280;3047;42.600;23.470;2022-10-12T12:36:14;93660.97;;;16.21;100.00
6038;BME280;3047;42.600;23.470;2022-10-12T12:38:50;93679.00;;;16.37;100.00
6038;BME280;3047;42.600;23.470;2022-10-12T12:41:19;93694.69;;;16.48;100.00
6038;BME280;3047;42.600;23.470;2022-10-12T12:43:56;93660.50;;;16.32;100.00
6038;BME280;3047;42.600;23.470;2022-10-12T12:49:27;93694.44;;;16.54;100.00
6038;BME280;3047;42.600;23.470;2022-10-12T12:51:57;93701.19;;;16.55;100.00
6038;BME280;3047;42.600;23.470;2022-10-12T12:54:24;93704.50;;;16.58;100.00
6038;BME280;3047;42.600;23.470;2022-10-12T12:57:11;93698.63;;;16.55;100.00
6038;BME280;3047;42.600;23.470;2022-10-12T13:00:09;93699.47;;;16.56;100.00
6038;BME280;3047;42.600;23.470;2022-10-12T13:03:10;93703.72;;;16.55;100.00
6038;BME280;3047;42.600;23.470;2022-10-12T13:06:18;93712.00;;;16.61;100.00
6038;BME280;3047;42.600;23.470;2022-10-12T13:12:02;93716.16;;;16.63;100.00
6038;BME280;3047;42.600;23.470;2022-10-12T13:14:47;93715.16;;;16.67;100.00
6038;BME280;3047;42.600;23.470;2022-10-12T13:17:30;93691.44;;;16.45;100.00
6038;BME280;3047;42.600;23.470;2022-10-12T13:20:14;93696.03;;;16.57;100.00
6038;BME280;3047;42.600;23.470;2022-10-12T13:22:43;93707.41;;;16.69;100.00
6038;BME280;3047;42.600;23.470;2022-10-12T13:25:16;93706.56;;;16.70;100.00
6038;BME280;3047;42.600;23.470;2022-10-12T13:27:48;93713.31;;;16.71;100.00
6038;BME280;3047;42.600;23.470;2022-10-12T13:30:24;93709.84;;;16.73;100.00